< < Back
Terminal Aerodrome Forecast


Current Version              Previous Versions:   1  2  3  4  5  6  7  8  9  

Terminal Aerodrome Forecast

493
FTUS42 KGSP 190800 AAB
TAFCLT
TAF AMD
KCLT 190856Z 1909/2006 03012G20KT 4SM -RA BR SCT008 OVC013
      TEMPO 1909/1912 3SM RA BR BKN008 OVC012
     FM191300 03014G24KT 3SM RA BR OVC010
     FM191800 04015G26KT 6SM -RA BR OVC012
     FM200100 04014G22KT 5SM BR VCSH OVC015=

Latest METAR

968
SAUS70 KWBC 192000 RRA
MTRCLT
METAR KCLT 191952Z 36010KT 3SM RA BR BKN008 OVC019 11/10 A3015 RMK AO2
SLP209 P0005 T01110100


USA.gov is the U.S. government's official web portal to all federal, state and local government web resources and services.